createdAt,value
2022-09-28T00:00:48.294Z,11.54
2022-09-28T00:01:48.373Z,11.57
2022-09-28T00:02:48.499Z,11.55
2022-09-28T00:03:48.248Z,11.45
2022-09-28T00:04:48.231Z,11.47
2022-09-28T00:05:48.255Z,11.50
2022-09-28T00:06:48.285Z,11.47
2022-09-28T00:07:48.191Z,11.54
2022-09-28T00:08:48.191Z,11.36
2022-09-28T00:09:48.178Z,11.26
2022-09-28T00:10:48.190Z,11.18
2022-09-28T00:11:48.186Z,11.18
2022-09-28T00:12:48.146Z,11.14
2022-09-28T00:13:48.127Z,11.17
2022-09-28T00:14:48.122Z,11.14
2022-09-28T00:15:48.116Z,11.07
2022-09-28T00:16:48.162Z,11.04
2022-09-28T00:17:48.085Z,11.12
2022-09-28T00:18:48.080Z,11.07
2022-09-28T00:19:48.062Z,11.15
2022-09-28T00:20:48.056Z,11.07
2022-09-28T00:21:48.084Z,11.14
2022-09-28T00:22:48.039Z,11.02
2022-09-28T00:23:48.025Z,11.02
2022-09-28T00:24:48.016Z,11.10
2022-09-28T00:25:48.002Z,11.04
2022-09-28T00:26:48.014Z,11.02
2022-09-28T00:27:47.985Z,11.00
2022-09-28T00:28:47.963Z,10.89
2022-09-28T00:29:47.994Z,11.02
2022-09-28T00:30:47.954Z,11.00
2022-09-28T00:31:47.941Z,10.99
2022-09-28T00:32:47.969Z,10.99
2022-09-28T00:33:47.950Z,10.92
2022-09-28T00:34:47.918Z,10.89
2022-09-28T00:35:47.906Z,10.79
2022-09-28T00:36:47.894Z,10.87
2022-09-28T00:37:47.929Z,10.81
2022-09-28T00:38:47.857Z,10.81
2022-09-28T00:39:47.853Z,10.82
2022-09-28T00:40:47.864Z,10.89
2022-09-28T00:41:47.829Z,10.74
2022-09-28T00:42:47.892Z,10.78
2022-09-28T00:43:47.809Z,10.75
2022-09-28T00:44:47.811Z,10.75
2022-09-28T00:45:47.851Z,10.81
2022-09-28T00:46:47.780Z,10.86
2022-09-28T00:47:47.767Z,10.82
2022-09-28T00:48:47.784Z,10.90
2022-09-28T00:49:47.744Z,10.81
2022-09-28T00:50:47.732Z,10.81
2022-09-28T00:51:47.719Z,10.86
2022-09-28T00:52:47.717Z,10.82
2022-09-28T00:53:47.749Z,10.89
2022-09-28T00:54:47.693Z,10.81
2022-09-28T00:55:47.674Z,10.90
2022-09-28T00:56:47.670Z,10.69
2022-09-28T00:57:47.659Z,10.71
2022-09-28T00:58:47.646Z,10.69
2022-09-28T00:59:47.666Z,10.74
2022-09-28T01:00:47.709Z,10.68
2022-09-28T01:01:47.655Z,10.78
2022-09-28T01:02:47.608Z,10.79
2022-09-28T01:03:47.606Z,10.69
2022-09-28T01:04:47.586Z,10.67
2022-09-28T01:05:47.588Z,10.67
2022-09-28T01:06:47.554Z,10.67
2022-09-28T01:07:47.553Z,10.75
2022-09-28T01:08:47.638Z,10.72
2022-09-28T01:09:47.563Z,10.67
2022-09-28T01:10:47.546Z,10.67
2022-09-28T01:11:47.543Z,10.79
2022-09-28T01:12:47.490Z,10.89
2022-09-28T01:13:47.478Z,10.75
2022-09-28T01:14:47.485Z,10.78
2022-09-28T01:15:47.462Z,10.86
2022-09-28T01:16:47.540Z,10.87
2022-09-28T01:17:47.430Z,10.92
2022-09-28T01:18:47.421Z,10.96
2022-09-28T01:19:47.412Z,10.99
2022-09-28T01:20:47.412Z,11.08
2022-09-28T01:21:47.420Z,11.05
2022-09-28T01:22:47.387Z,11.07
2022-09-28T01:23:47.376Z,10.96
2022-09-28T01:24:47.365Z,11.05
2022-09-28T01:25:47.364Z,11.04
2022-09-28T01:26:47.364Z,11.08
2022-09-28T01:27:47.329Z,11.11
2022-09-28T01:28:47.322Z,11.07
2022-09-28T01:29:47.307Z,10.96
2022-09-28T01:30:47.310Z,10.87
2022-09-28T01:31:47.360Z,10.90
2022-09-28T01:32:47.305Z,11.02
2022-09-28T01:33:47.269Z,10.92
2022-09-28T01:34:47.256Z,11.02
2022-09-28T01:35:47.243Z,11.00
2022-09-28T01:36:47.225Z,10.97
2022-09-28T01:37:47.254Z,10.99
2022-09-28T01:38:47.229Z,10.99
2022-09-28T01:39:47.199Z,10.93
2022-09-28T01:40:47.227Z,10.93
2022-09-28T01:41:47.199Z,11.00
2022-09-28T01:42:47.193Z,10.99
2022-09-28T01:43:47.156Z,11.02
2022-09-28T01:44:47.149Z,11.07
2022-09-28T01:45:47.229Z,11.04
2022-09-28T01:46:47.115Z,10.99
2022-09-28T01:47:47.129Z,11.02
2022-09-28T01:48:47.138Z,10.99
2022-09-28T01:49:47.094Z,10.89
2022-09-28T01:50:47.072Z,10.92
2022-09-28T01:51:47.061Z,10.87
2022-09-28T01:52:47.059Z,10.97
2022-09-28T01:53:47.068Z,10.93
2022-09-28T01:54:47.029Z,10.94
2022-09-28T01:55:47.026Z,11.02
2022-09-28T01:56:47.018Z,10.92
2022-09-28T01:57:47.013Z,11.04
2022-09-28T01:58:47.012Z,11.07
2022-09-28T01:59:46.979Z,11.04
2022-09-28T02:00:47.057Z,11.04
2022-09-28T02:01:47.061Z,11.10
2022-09-28T02:02:46.948Z,11.02
2022-09-28T02:03:46.929Z,10.97
2022-09-28T02:04:46.953Z,10.90
2022-09-28T02:05:46.910Z,10.93
2022-09-28T02:06:46.897Z,10.94
2022-09-28T02:07:46.892Z,10.94
2022-09-28T02:08:46.873Z,10.93
2022-09-28T02:09:46.892Z,10.87
2022-09-28T02:10:46.898Z,10.93
2022-09-28T02:11:46.848Z,10.93
2022-09-28T02:12:47.694Z,10.82
2022-09-28T02:13:46.842Z,10.81
2022-09-28T02:14:46.840Z,10.79
2022-09-28T02:15:46.819Z,10.82
2022-09-28T02:16:46.841Z,10.76
2022-09-28T02:17:46.782Z,10.79
2022-09-28T02:18:46.765Z,10.82
2022-09-28T02:19:46.759Z,10.79
2022-09-28T02:20:46.788Z,10.79
2022-09-28T02:21:46.741Z,10.86
2022-09-28T02:22:46.726Z,10.78
2022-09-28T02:23:46.708Z,10.82
2022-09-28T02:24:46.720Z,10.81
2022-09-28T02:25:46.700Z,10.81
2022-09-28T02:26:46.799Z,10.82
2022-09-28T02:27:46.680Z,10.92
2022-09-28T02:28:46.660Z,10.86
2022-09-28T02:29:46.675Z,10.84
2022-09-28T02:30:46.646Z,10.90
2022-09-28T02:31:46.683Z,10.90
2022-09-28T02:32:46.636Z,10.94
2022-09-28T02:33:46.618Z,10.94
2022-09-28T02:34:46.586Z,10.90
2022-09-28T02:35:46.586Z,10.86
2022-09-28T02:36:46.582Z,10.90
2022-09-28T02:37:46.586Z,10.81
2022-09-28T02:38:46.547Z,10.81
2022-09-28T02:39:46.549Z,10.90
2022-09-28T02:40:46.636Z,10.93
2022-09-28T02:41:46.519Z,10.97
2022-09-28T02:42:46.527Z,11.02
2022-09-28T02:43:46.535Z,11.04
2022-09-28T02:44:46.490Z,11.04
2022-09-28T02:45:46.536Z,11.10
2022-09-28T02:46:46.460Z,11.11
2022-09-28T02:47:46.479Z,11.18
2022-09-28T02:48:55.706Z,11.14
2022-09-28T02:49:47.425Z,11.04
2022-09-28T02:50:46.415Z,11.08
2022-09-28T02:51:46.413Z,11.05
2022-09-28T02:52:46.402Z,11.02
2022-09-28T02:53:46.420Z,10.97
2022-09-28T02:54:46.368Z,10.82
2022-09-28T02:55:46.362Z,10.82
2022-09-28T02:56:46.357Z,10.92
2022-09-28T02:57:46.347Z,10.84
2022-09-28T02:58:46.333Z,10.92
2022-09-28T02:59:46.345Z,10.89
2022-09-28T03:00:46.364Z,10.90
2022-09-28T03:01:46.386Z,10.96
2022-09-28T03:02:46.283Z,10.93
2022-09-28T03:03:46.272Z,10.87
2022-09-28T03:04:46.271Z,10.87
2022-09-28T03:05:46.280Z,10.82
2022-09-28T03:06:46.243Z,10.84
2022-09-28T03:07:46.241Z,10.79
2022-09-28T03:08:46.229Z,10.81
2022-09-28T03:09:46.203Z,10.81
2022-09-28T03:10:46.227Z,10.81
2022-09-28T03:11:46.322Z,10.75
2022-09-28T03:12:46.182Z,10.81
2022-09-28T03:13:46.163Z,10.67
2022-09-28T03:14:46.206Z,10.69
2022-09-28T03:15:48.816Z,10.72
2022-09-28T03:16:46.252Z,10.74
2022-09-28T03:17:46.165Z,10.69
2022-09-28T03:18:46.114Z,10.74
2022-09-28T03:19:46.097Z,10.68
2022-09-28T03:20:46.122Z,10.72
2022-09-28T03:21:46.087Z,10.63
2022-09-28T03:23:00.269Z,10.81
2022-09-28T03:23:47.087Z,10.69
2022-09-28T03:24:46.044Z,10.82
2022-09-28T03:25:46.032Z,10.75
2022-09-28T03:26:46.123Z,10.71
2022-09-28T03:27:46.032Z,10.78
2022-09-28T03:28:46.282Z,10.84
2022-09-28T03:29:46.120Z,10.72
2022-09-28T03:30:46.010Z,10.81
2022-09-28T03:31:46.019Z,10.84
2022-09-28T03:32:45.966Z,10.78
2022-09-28T03:33:45.997Z,10.76
2022-09-28T03:34:45.942Z,10.82
2022-09-28T03:35:45.926Z,10.78
2022-09-28T03:36:45.935Z,10.82
2022-09-28T03:37:45.908Z,10.78
2022-09-28T03:38:45.918Z,10.82
2022-09-28T03:39:45.879Z,10.78
2022-09-28T03:40:45.906Z,10.79
2022-09-28T03:41:45.888Z,10.79
2022-09-28T03:42:45.847Z,10.84
2022-09-28T03:43:45.867Z,10.63
2022-09-28T03:44:45.822Z,10.82
2022-09-28T03:45:45.869Z,10.79
2022-09-28T03:46:45.802Z,10.82
2022-09-28T03:47:45.814Z,10.74
2022-09-28T03:48:45.783Z,10.75
2022-09-28T03:49:45.797Z,10.74
2022-09-28T03:50:45.796Z,10.76
2022-09-28T03:51:45.805Z,10.72
2022-09-28T03:52:45.776Z,10.67
2022-09-28T03:53:45.732Z,10.51
2022-09-28T03:54:49.037Z,10.54
2022-09-28T03:55:45.711Z,10.54
2022-09-28T03:56:45.703Z,10.59
2022-09-28T03:57:45.713Z,10.54
2022-09-28T03:58:45.674Z,10.51
2022-09-28T03:59:45.672Z,10.53
2022-09-28T04:00:45.760Z,10.56
2022-09-28T04:01:45.733Z,10.49
2022-09-28T04:02:45.660Z,10.48
2022-09-28T04:03:45.653Z,10.42
2022-09-28T04:04:45.612Z,10.46
2022-09-28T04:05:45.620Z,10.35
2022-09-28T04:06:45.626Z,10.38
2022-09-28T04:07:46.188Z,10.38
2022-09-28T04:08:45.598Z,10.42
2022-09-28T04:09:45.559Z,10.41
2022-09-28T04:10:45.539Z,10.44
2022-09-28T04:12:02.808Z,10.40
2022-09-28T04:12:46.526Z,10.53
2022-09-28T04:13:45.522Z,10.53
2022-09-28T04:14:45.499Z,10.53
2022-09-28T04:15:45.511Z,10.54
2022-09-28T04:16:45.547Z,10.44
2022-09-28T04:17:45.467Z,10.53
2022-09-28T04:18:45.472Z,10.56
2022-09-28T04:19:45.451Z,10.48
2022-09-28T04:20:45.439Z,10.49
2022-09-28T04:21:45.641Z,10.49
2022-09-28T04:22:45.409Z,10.48
2022-09-28T04:23:45.400Z,10.49
2022-09-28T04:24:45.392Z,10.54
2022-09-28T04:25:45.385Z,10.59
2022-09-28T04:26:45.402Z,10.51
2022-09-28T04:27:45.396Z,10.56
2022-09-28T04:28:45.355Z,10.61
2022-09-28T04:29:45.339Z,10.56
2022-09-28T04:30:45.320Z,10.56
2022-09-28T04:31:45.402Z,10.54
2022-09-28T04:32:45.780Z,10.54
2022-09-28T04:33:45.287Z,10.57
2022-09-28T04:34:45.284Z,10.56
2022-09-28T04:35:45.272Z,10.54
2022-09-28T04:36:45.280Z,10.59
2022-09-28T04:37:45.276Z,10.49
2022-09-28T04:38:53.637Z,10.44
2022-09-28T04:39:48.451Z,10.51
2022-09-28T04:40:45.265Z,10.48
2022-09-28T04:41:45.209Z,10.51
2022-09-28T04:42:45.223Z,10.44
2022-09-28T04:43:45.186Z,10.51
2022-09-28T04:44:45.305Z,10.48
2022-09-28T04:45:45.216Z,10.54
2022-09-28T04:46:45.157Z,10.61
2022-09-28T04:47:45.177Z,10.56
2022-09-28T04:48:45.131Z,10.57
2022-09-28T04:49:45.117Z,10.53
2022-09-28T04:50:45.110Z,10.60
2022-09-28T04:51:45.160Z,10.56
2022-09-28T04:52:45.080Z,10.57
2022-09-28T04:53:45.115Z,10.59
2022-09-28T04:54:45.090Z,10.67
2022-09-28T04:55:45.044Z,10.67
2022-09-28T04:56:45.042Z,10.64
2022-09-28T04:57:45.066Z,10.71
2022-09-28T04:58:47.913Z,10.71
2022-09-28T04:59:46.013Z,10.56
2022-09-28T05:00:45.065Z,10.56
2022-09-28T05:01:44.983Z,10.57
2022-09-28T05:02:44.987Z,10.59
2022-09-28T05:03:44.990Z,10.59
2022-09-28T05:04:44.985Z,10.63
2022-09-28T05:05:44.949Z,10.60
2022-09-28T05:06:44.926Z,10.69
2022-09-28T05:07:44.924Z,10.64
2022-09-28T05:08:44.914Z,10.61
2022-09-28T05:09:44.948Z,10.67
2022-09-28T05:10:44.896Z,10.63
2022-09-28T05:11:44.877Z,10.68
2022-09-28T05:12:44.878Z,10.72
2022-09-28T05:13:44.852Z,10.75
2022-09-28T05:14:44.843Z,10.69
2022-09-28T05:15:45.287Z,10.69
2022-09-28T05:16:44.949Z,10.67
2022-09-28T05:17:44.874Z,10.72
2022-09-28T05:18:44.857Z,10.72
2022-09-28T05:19:44.834Z,10.59
2022-09-28T05:20:44.802Z,10.54
2022-09-28T05:21:44.805Z,10.54
2022-09-28T05:22:44.795Z,10.54
2022-09-28T05:23:44.791Z,10.60
2022-09-28T05:24:44.733Z,10.53
2022-09-28T05:25:44.743Z,10.61
2022-09-28T05:26:44.755Z,10.53
2022-09-28T05:27:44.722Z,10.59
2022-09-28T05:28:44.699Z,10.57
2022-09-28T05:29:44.688Z,10.59
2022-09-28T05:30:44.674Z,10.56
2022-09-28T05:31:44.690Z,10.59
2022-09-28T05:32:44.708Z,10.63
2022-09-28T05:33:44.636Z,10.64
2022-09-28T05:34:44.767Z,10.60
2022-09-28T05:35:44.621Z,10.59
2022-09-28T05:36:44.628Z,10.71
2022-09-28T05:37:44.598Z,10.69
2022-09-28T05:38:44.588Z,10.68
2022-09-28T05:39:44.568Z,10.63
2022-09-28T05:40:44.623Z,10.67
2022-09-28T05:41:44.592Z,10.69
2022-09-28T05:42:44.570Z,10.68
2022-09-28T05:43:44.527Z,10.72
2022-09-28T05:44:44.511Z,10.74
2022-09-28T05:45:44.593Z,10.72
2022-09-28T05:46:44.499Z,10.69
2022-09-28T05:47:44.482Z,10.53
2022-09-28T05:48:44.505Z,10.53
2022-09-28T05:49:44.486Z,10.59
2022-09-28T05:50:44.462Z,10.46
2022-09-28T05:51:44.440Z,10.37
2022-09-28T05:52:44.434Z,10.37
2022-09-28T05:53:44.445Z,10.42
2022-09-28T05:54:44.409Z,10.22
2022-09-28T05:55:44.417Z,10.16
2022-09-28T05:56:44.382Z,10.17
2022-09-28T05:57:44.396Z,10.31
2022-09-28T05:58:44.394Z,10.25
2022-09-28T05:59:44.353Z,10.26
2022-09-28T06:00:44.338Z,10.35
2022-09-28T06:01:44.364Z,10.40
2022-09-28T06:02:44.366Z,10.51
2022-09-28T06:03:44.336Z,10.59
2022-09-28T06:04:44.303Z,10.60
2022-09-28T06:05:44.291Z,10.72
2022-09-28T06:06:44.271Z,10.69
2022-09-28T06:07:44.270Z,10.82
2022-09-28T06:08:44.278Z,10.81
2022-09-28T06:09:44.240Z,10.99
2022-09-28T06:10:44.262Z,11.04
2022-09-28T06:11:44.225Z,11.11
2022-09-28T06:12:44.212Z,11.19
2022-09-28T06:13:44.236Z,11.26
2022-09-28T06:14:44.237Z,11.41
2022-09-28T06:15:44.183Z,11.54
2022-09-28T06:16:44.252Z,11.60
2022-09-28T06:17:44.158Z,11.68
2022-09-28T06:18:44.144Z,11.62
2022-09-28T06:19:44.130Z,11.63
2022-09-28T06:20:44.152Z,11.78
2022-09-28T06:21:44.121Z,11.72
2022-09-28T06:22:44.113Z,11.78
2022-09-28T06:23:48.789Z,11.86
2022-09-28T06:24:45.074Z,11.90
2022-09-28T06:25:44.111Z,11.95
2022-09-28T06:26:44.080Z,11.88
2022-09-28T06:27:44.046Z,11.75
2022-09-28T06:28:44.039Z,11.66
2022-09-28T06:29:44.050Z,11.63
2022-09-28T06:30:44.129Z,11.55
2022-09-28T06:31:44.008Z,11.57
2022-09-28T06:32:43.994Z,11.59
2022-09-28T06:33:43.993Z,11.47
2022-09-28T06:34:43.969Z,11.50
2022-09-28T06:35:44.000Z,11.43
2022-09-28T06:36:43.953Z,11.37
2022-09-28T06:37:43.936Z,11.26
2022-09-28T06:38:43.937Z,11.23
2022-09-28T06:39:43.927Z,11.23
2022-09-28T06:40:43.994Z,11.15
2022-09-28T06:41:43.929Z,11.29
2022-09-28T06:42:43.914Z,11.26
2022-09-28T06:43:43.881Z,11.32
2022-09-28T06:44:43.857Z,11.29
2022-09-28T06:45:44.946Z,11.37
2022-09-28T06:46:43.884Z,11.22
2022-09-28T06:47:43.842Z,11.26
2022-09-28T06:48:43.821Z,11.32
2022-09-28T06:49:43.815Z,11.37
2022-09-28T06:50:43.824Z,11.43
2022-09-28T06:51:43.783Z,11.40
2022-09-28T06:52:43.806Z,11.48
2022-09-28T06:53:43.774Z,11.43
2022-09-28T06:54:43.760Z,11.47
2022-09-28T06:55:43.743Z,11.57
2022-09-28T06:56:43.758Z,11.52
2022-09-28T06:57:43.725Z,11.55
2022-09-28T06:58:44.273Z,11.63
2022-09-28T06:59:43.730Z,11.57
2022-09-28T07:00:43.694Z,11.66
2022-09-28T07:01:43.788Z,11.65
2022-09-28T07:02:43.775Z,11.60
2022-09-28T07:03:43.675Z,11.75
2022-09-28T07:04:43.657Z,11.83
2022-09-28T07:05:43.641Z,11.90
2022-09-28T07:06:43.626Z,11.86
2022-09-28T07:07:43.653Z,11.97
2022-09-28T07:08:43.617Z,11.95
2022-09-28T07:09:48.114Z,11.97
2022-09-28T07:10:44.582Z,11.95
2022-09-28T07:11:43.566Z,11.94
2022-09-28T07:12:43.555Z,12.02
2022-09-28T07:13:50.758Z,12.07
2022-09-28T07:14:48.231Z,12.12
2022-09-28T07:15:43.561Z,11.99
2022-09-28T07:17:09.831Z,12.09
2022-09-28T07:17:57.637Z,12.17
2022-09-28T07:18:44.499Z,12.22
2022-09-28T07:19:43.489Z,12.28
2022-09-28T07:20:53.015Z,12.39
2022-09-28T07:21:46.488Z,12.45
2022-09-28T07:22:44.463Z,12.49
2022-09-28T07:23:52.570Z,12.57
2022-09-28T07:24:44.427Z,12.50
2022-09-28T07:25:43.417Z,12.58
2022-09-28T07:26:43.409Z,12.64
2022-09-28T07:27:43.393Z,12.64
2022-09-28T07:28:43.382Z,12.80
2022-09-28T07:29:43.409Z,12.72
2022-09-28T07:30:43.495Z,12.73
2022-09-28T07:31:43.396Z,12.70
2022-09-28T07:32:43.383Z,12.65
2022-09-28T07:33:43.359Z,12.79
2022-09-28T07:34:43.319Z,12.83
2022-09-28T07:35:43.314Z,12.93
2022-09-28T07:36:43.299Z,12.93
2022-09-28T07:37:43.301Z,12.95
2022-09-28T07:38:43.313Z,12.98
2022-09-28T07:39:43.271Z,13.01
2022-09-28T07:40:48.204Z,13.08
2022-09-28T07:41:44.246Z,13.09
2022-09-28T07:42:43.238Z,13.22
2022-09-28T07:43:43.233Z,13.27
2022-09-28T07:44:43.219Z,13.37
2022-09-28T07:45:43.244Z,13.39
2022-09-28T07:46:43.257Z,13.47
2022-09-28T07:47:43.188Z,13.47
2022-09-28T07:48:43.169Z,13.46
2022-09-28T07:49:43.182Z,13.53
2022-09-28T07:50:43.148Z,13.38
2022-09-28T07:51:43.180Z,13.27
2022-09-28T07:52:43.123Z,13.25
2022-09-28T07:53:43.121Z,13.33
2022-09-28T07:54:43.104Z,13.33
2022-09-28T07:55:43.102Z,13.35
2022-09-28T07:56:43.116Z,13.41
2022-09-28T07:57:43.073Z,13.41
2022-09-28T07:58:43.090Z,13.42
2022-09-28T07:59:43.058Z,13.22
2022-09-28T08:00:43.039Z,13.27
2022-09-28T08:01:43.095Z,13.30
2022-09-28T08:02:43.154Z,13.46
2022-09-28T08:03:43.055Z,13.46
2022-09-28T08:04:43.010Z,13.49
2022-09-28T08:05:43.008Z,13.54
2022-09-28T08:06:49.789Z,13.56
2022-09-28T08:07:43.001Z,13.74
2022-09-28T08:08:42.959Z,13.68
2022-09-28T08:09:42.951Z,13.74
2022-09-28T08:10:46.563Z,13.79
2022-09-28T08:11:42.921Z,13.81
2022-09-28T08:12:42.938Z,13.77
2022-09-28T08:13:42.910Z,13.77
2022-09-28T08:14:42.917Z,13.79
2022-09-28T08:15:42.915Z,13.92
2022-09-28T08:16:42.876Z,13.89
2022-09-28T08:17:42.863Z,13.97
2022-09-28T08:18:42.882Z,14.03
2022-09-28T08:19:42.858Z,14.10
2022-09-28T08:20:42.823Z,14.17
2022-09-28T08:21:42.839Z,14.22
2022-09-28T08:22:42.805Z,14.29
2022-09-28T08:23:42.819Z,14.26
2022-09-28T08:24:42.791Z,14.41
2022-09-28T08:25:42.795Z,14.43
2022-09-28T08:26:42.765Z,14.43
2022-09-28T08:27:42.755Z,14.65
2022-09-28T08:28:42.787Z,14.60
2022-09-28T08:29:42.730Z,14.41
2022-09-28T08:30:42.801Z,14.54
2022-09-28T08:31:42.704Z,14.62
2022-09-28T08:32:42.701Z,14.62
2022-09-28T08:33:42.693Z,14.60
2022-09-28T08:34:42.702Z,14.54
2022-09-28T08:35:42.682Z,14.44
2022-09-28T08:36:42.663Z,14.40
2022-09-28T08:37:45.866Z,14.43
2022-09-28T08:38:43.636Z,14.45
2022-09-28T08:39:42.654Z,14.40
2022-09-28T08:40:42.715Z,14.47
2022-09-28T08:41:42.637Z,14.43
2022-09-28T08:42:42.595Z,14.51
2022-09-28T08:43:42.587Z,14.44
2022-09-28T08:45:42.590Z,14.60
2022-09-28T08:46:42.548Z,14.58
2022-09-28T08:47:42.539Z,14.60
2022-09-28T08:48:43.769Z,14.62
2022-09-28T08:49:42.532Z,14.45
2022-09-28T08:50:43.878Z,14.45
2022-09-28T08:51:49.325Z,14.41
2022-09-28T08:52:42.477Z,14.44
2022-09-28T08:53:42.550Z,14.44
2022-09-28T08:54:42.528Z,14.40
2022-09-28T08:55:42.474Z,14.30
2022-09-28T08:56:42.450Z,14.30
2022-09-28T08:57:42.434Z,14.47
2022-09-28T08:58:42.415Z,14.35
2022-09-28T08:59:42.407Z,14.54
2022-09-28T09:00:42.423Z,14.69
2022-09-28T09:01:42.477Z,14.72
2022-09-28T09:02:42.443Z,14.72
2022-09-28T09:03:42.365Z,15.52
2022-09-28T09:04:42.372Z,16.43
2022-09-28T09:05:42.348Z,17.02
2022-09-28T09:06:42.349Z,17.76
2022-09-28T09:07:42.325Z,18.60
2022-09-28T09:08:42.311Z,19.40
2022-09-28T09:09:42.315Z,20.40
2022-09-28T09:10:42.333Z,21.22
2022-09-28T09:11:42.339Z,21.92
2022-09-28T09:12:42.330Z,22.35
2022-09-28T09:13:42.808Z,22.72
2022-09-28T09:14:42.278Z,23.23
2022-09-28T09:15:42.237Z,23.66
2022-09-28T09:16:42.327Z,23.66
2022-09-28T09:17:42.250Z,23.56
2022-09-28T09:18:42.586Z,23.17
2022-09-28T09:19:42.251Z,22.76
2022-09-28T09:20:42.251Z,22.11
2022-09-28T09:21:42.198Z,21.35
2022-09-28T09:22:42.170Z,20.62
2022-09-28T09:23:42.153Z,19.99
2022-09-28T09:24:42.146Z,19.40
2022-09-28T09:25:42.138Z,19.19
2022-09-28T09:26:42.152Z,18.98
2022-09-28T09:27:42.111Z,18.80
2022-09-28T09:28:42.089Z,18.74
2022-09-28T09:29:42.093Z,19.15
2022-09-28T09:30:42.120Z,19.47
2022-09-28T09:31:42.070Z,19.62
2022-09-28T09:32:42.074Z,19.56
2022-09-28T09:33:42.046Z,19.85
2022-09-28T09:34:42.045Z,19.40
2022-09-28T09:35:42.025Z,18.89
2022-09-28T09:36:42.009Z,18.55
2022-09-28T09:37:41.997Z,18.50
2022-09-28T09:38:42.020Z,18.18
2022-09-28T09:39:41.983Z,17.80
2022-09-28T09:40:42.059Z,17.52
2022-09-28T09:41:42.055Z,17.59
2022-09-28T09:42:41.950Z,18.89
2022-09-28T09:43:41.982Z,20.28
2022-09-28T09:44:41.957Z,21.79
2022-09-28T09:45:41.936Z,23.10
2022-09-28T09:46:41.947Z,24.11
2022-09-28T09:47:41.893Z,24.84
2022-09-28T09:48:41.929Z,25.78
2022-09-28T09:49:41.962Z,25.95
2022-09-28T09:50:41.926Z,24.95
2022-09-28T09:51:41.876Z,24.11
2022-09-28T09:52:44.319Z,23.32
2022-09-28T09:53:41.898Z,22.53
2022-09-28T09:54:41.881Z,22.62
2022-09-28T09:55:41.878Z,22.65
2022-09-28T09:56:41.859Z,22.50
2022-09-28T09:57:41.807Z,22.18
2022-09-28T09:58:41.772Z,21.93
2022-09-28T09:59:41.768Z,21.42
2022-09-28T10:00:41.786Z,20.52
2022-09-28T10:01:41.802Z,19.74
2022-09-28T10:02:41.792Z,19.22
2022-09-28T10:03:41.727Z,18.83
2022-09-28T10:04:41.733Z,18.73
2022-09-28T10:05:41.709Z,18.56
2022-09-28T10:06:48.780Z,18.18
2022-09-28T10:07:43.583Z,17.85
2022-09-28T10:08:41.677Z,17.54
2022-09-28T10:09:41.676Z,17.38
2022-09-28T10:10:41.653Z,17.02
2022-09-28T10:11:41.635Z,17.04
2022-09-28T10:12:41.650Z,17.02
2022-09-28T10:13:41.636Z,16.87
2022-09-28T10:14:41.605Z,17.06
2022-09-28T10:15:41.599Z,16.99
2022-09-28T10:16:41.652Z,17.09
2022-09-28T10:17:41.581Z,17.09
2022-09-28T10:18:41.585Z,17.06
2022-09-28T10:19:41.569Z,16.76
2022-09-28T10:20:41.539Z,16.41
2022-09-28T10:21:41.524Z,16.38
2022-09-28T10:22:41.514Z,16.57
2022-09-28T10:23:41.541Z,16.60
2022-09-28T10:24:41.517Z,16.50
2022-09-28T10:25:41.488Z,16.51
2022-09-28T10:26:41.477Z,16.69
2022-09-28T10:27:41.462Z,16.76
2022-09-28T10:28:41.466Z,16.72
2022-09-28T10:29:41.479Z,16.60
2022-09-28T10:30:41.472Z,16.33
2022-09-28T10:31:41.431Z,16.20
2022-09-28T10:32:41.413Z,16.21
2022-09-28T10:33:41.409Z,16.32
2022-09-28T10:34:41.394Z,16.26
2022-09-28T10:35:41.399Z,16.38
2022-09-28T10:36:41.376Z,16.51
2022-09-28T10:37:41.354Z,16.46
2022-09-28T10:38:41.342Z,16.51
2022-09-28T10:39:41.341Z,16.46
2022-09-28T10:40:41.405Z,16.50
2022-09-28T10:41:41.326Z,16.56
2022-09-28T10:42:41.307Z,16.49
2022-09-28T10:43:41.299Z,16.49
2022-09-28T10:44:41.286Z,16.36
2022-09-28T10:45:41.380Z,16.16
2022-09-28T10:46:41.275Z,16.24
2022-09-28T10:47:41.268Z,16.32
2022-09-28T10:48:41.242Z,16.12
2022-09-28T10:49:46.599Z,16.09
2022-09-28T10:50:42.227Z,16.05
2022-09-28T10:51:41.211Z,16.02
2022-09-28T10:52:41.222Z,15.84
2022-09-28T10:53:41.178Z,15.68
2022-09-28T10:54:41.176Z,15.46
2022-09-28T10:55:41.166Z,15.44
2022-09-28T10:56:41.157Z,15.44
2022-09-28T10:57:41.142Z,15.43
2022-09-28T10:58:41.139Z,15.51
2022-09-28T10:59:41.120Z,15.47
2022-09-28T11:00:41.109Z,15.47
2022-09-28T11:01:41.223Z,15.46
2022-09-28T11:02:41.124Z,15.47
2022-09-28T11:03:41.092Z,15.47
2022-09-28T11:04:41.083Z,15.44
2022-09-28T11:05:41.062Z,15.39
2022-09-28T11:06:41.038Z,15.22
2022-09-28T11:07:41.029Z,15.15
2022-09-28T11:08:41.024Z,15.04
2022-09-28T11:09:41.045Z,15.06
2022-09-28T11:10:40.994Z,15.06
2022-09-28T11:11:40.993Z,15.04
2022-09-28T11:12:40.984Z,14.84
2022-09-28T11:13:40.971Z,14.82
2022-09-28T11:14:42.689Z,14.88
2022-09-28T11:15:40.975Z,14.84
2022-09-28T11:16:40.995Z,14.79
2022-09-28T11:17:40.941Z,14.70
2022-09-28T11:18:40.918Z,14.68
2022-09-28T11:19:40.908Z,14.58
2022-09-28T11:20:44.289Z,14.58
2022-09-28T11:21:40.890Z,14.41
2022-09-28T11:22:40.901Z,14.25
2022-09-28T11:23:40.867Z,14.18
2022-09-28T11:24:40.854Z,14.17
2022-09-28T11:25:40.841Z,14.04
2022-09-28T11:26:40.834Z,13.97
2022-09-28T11:27:40.816Z,14.08
2022-09-28T11:28:40.821Z,14.04
2022-09-28T11:29:40.800Z,13.86
2022-09-28T11:30:40.830Z,13.75
2022-09-28T11:31:40.784Z,13.78
2022-09-28T11:32:40.767Z,13.79
2022-09-28T11:33:40.764Z,13.86
2022-09-28T11:34:58.725Z,13.86
2022-09-28T11:35:41.743Z,13.81
2022-09-28T11:36:40.733Z,13.83
2022-09-28T11:37:40.703Z,13.79
2022-09-28T11:38:40.712Z,13.81
2022-09-28T11:39:40.691Z,13.68
2022-09-28T11:40:40.821Z,13.71
2022-09-28T11:41:40.661Z,13.54
2022-09-28T11:42:40.665Z,13.57
2022-09-28T11:43:40.649Z,13.57
2022-09-28T11:44:40.643Z,13.50
2022-09-28T11:45:40.660Z,13.50
2022-09-28T11:46:40.618Z,13.52
2022-09-28T11:47:40.630Z,13.56
2022-09-28T11:48:40.590Z,13.53
2022-09-28T11:49:40.601Z,13.46
2022-09-28T11:50:40.569Z,13.47
2022-09-28T11:51:40.564Z,13.50
2022-09-28T11:52:40.551Z,13.56
2022-09-28T11:53:40.551Z,13.56
2022-09-28T11:54:40.532Z,13.70
2022-09-28T11:55:40.510Z,13.67
2022-09-28T11:56:40.501Z,13.77
2022-09-28T11:57:40.489Z,13.81
2022-09-28T11:58:40.501Z,13.87
2022-09-28T11:59:40.465Z,13.89
2022-09-28T12:00:40.469Z,13.77
2022-09-28T12:01:40.446Z,13.81
2022-09-28T12:02:40.563Z,13.85
2022-09-28T12:03:40.627Z,13.63
2022-09-28T12:04:40.433Z,13.57
2022-09-28T12:05:40.427Z,13.44
2022-09-28T12:06:40.392Z,13.25
2022-09-28T12:07:40.388Z,13.20
2022-09-28T12:08:40.367Z,13.19
2022-09-28T12:09:40.371Z,13.01
2022-09-28T12:10:45.268Z,13.12
2022-09-28T12:11:41.337Z,13.15
2022-09-28T12:12:40.325Z,13.23
2022-09-28T12:13:40.312Z,13.37
2022-09-28T12:14:40.323Z,13.42
2022-09-28T12:16:06.821Z,13.41
2022-09-28T12:17:41.349Z,13.25
2022-09-28T12:18:40.257Z,13.20
2022-09-28T12:19:40.273Z,13.20
2022-09-28T12:20:40.244Z,13.09
2022-09-28T12:21:40.300Z,13.15
2022-09-28T12:22:40.225Z,13.18
2022-09-28T12:23:40.200Z,13.31
2022-09-28T12:24:40.197Z,13.39
2022-09-28T12:25:40.190Z,13.53
2022-09-28T12:26:40.190Z,13.41
2022-09-28T12:27:40.168Z,13.39
2022-09-28T12:28:40.156Z,13.30
2022-09-28T12:29:40.145Z,13.27
2022-09-28T12:30:40.189Z,13.15
2022-09-28T12:31:40.113Z,13.11
2022-09-28T12:32:40.123Z,13.00
2022-09-28T12:33:40.103Z,12.90
2022-09-28T12:34:40.094Z,12.80
2022-09-28T12:35:40.080Z,12.76
2022-09-28T12:36:40.065Z,12.85
2022-09-28T12:37:40.075Z,12.85
2022-09-28T12:38:40.066Z,13.08
2022-09-28T12:39:56.416Z,13.23
2022-09-28T12:40:41.091Z,13.22
2022-09-28T12:41:40.014Z,13.16
2022-09-28T12:42:40.044Z,13.19
2022-09-28T12:43:39.996Z,13.13
2022-09-28T12:44:39.977Z,13.23
2022-09-28T12:46:06.648Z,13.37
2022-09-28T12:46:41.047Z,13.50
2022-09-28T12:47:39.940Z,13.68
2022-09-28T12:48:39.953Z,13.78
2022-09-28T12:50:46.446Z,14.04
2022-09-28T12:51:40.897Z,13.96
2022-09-28T12:53:39.930Z,13.83
2022-09-28T12:54:39.888Z,13.68
2022-09-28T12:55:39.865Z,13.37
2022-09-28T12:56:39.859Z,13.31